Edegem, Belgium
Current Conditions -  °F | °C
As of 4:50 AM on Thursday 18 Dec 2014 (Local Time) from EBAW Reporting Station
Overcast Overcast  
Wind Chill: 52°   Ceiling: 700
Heat Index: 52°   Visibility: 5mi
Dew Point: 48°   Wind: 12mph
Humidity: 88%   Direction: 250°WSW
Pressure: 29.8"   Gusts: NA
Location:  51.16°N, 4.45°E
Report Text: EBAW 180350Z AUTO 25010KT 8000 SCT005/// OVC007/// 11/09 Q1009
Loading
Personal Weather Stations






























Interactive Weather Map New forecast layout! Learn more

10-Day Weather Forecast

Advertisements
Track Severe Weather on mobile